Time;durP1;ratioP1;P1;durP2;ratioP2;P2;SDS_P1;SDS_P2;PMS_P1;PMS_P2;Temp;Humidity;BMP_temperature;BMP_pressure;BME280_temperature;BME280_humidity;BME280_pressure;Samples;Min_cycle;Max_cycle;Signal;HPM_P1;HPM_P2
2022/07/24 00:00:27;;;;;;;1.00;0.57;;;22.10;58.90;;;;;;5092837;28;20036;-74
2022/07/24 00:02:52;;;;;;;1.13;0.47;;;22.10;59.00;;;;;;5092010;28;20380;-75
2022/07/24 00:05:18;;;;;;;0.88;0.50;;;22.10;58.90;;;;;;5091593;28;20040;-76
2022/07/24 00:07:43;;;;;;;1.60;0.40;;;22.10;58.90;;;;;;5091288;28;20048;-76
2022/07/24 00:10:10;;;;;;;1.00;0.40;;;22.10;58.90;;;;;;5091727;28;20046;-75
2022/07/24 00:12:37;;;;;;;1.17;0.55;;;22.10;59.00;;;;;;5091623;28;20123;-76
2022/07/24 00:15:04;;;;;;;0.88;0.60;;;22.10;58.90;;;;;;5091568;28;20047;-75
2022/07/24 00:17:29;;;;;;;1.38;0.52;;;22.10;58.90;;;;;;5091494;28;20127;-75
2022/07/24 00:19:55;;;;;;;1.05;0.50;;;22.10;58.90;;;;;;5093672;28;20111;-76
2022/07/24 00:22:21;;;;;;;0.90;0.50;;;22.10;58.90;;;;;;5091476;28;20040;-76
2022/07/24 00:24:46;;;;;;;0.70;0.60;;;22.10;58.90;;;;;;5091660;28;20042;-76
2022/07/24 00:27:12;;;;;;;0.98;0.47;;;22.10;58.90;;;;;;5091258;28;20434;-75
2022/07/24 00:29:38;;;;;;;1.10;0.40;;;22.00;58.90;;;;;;5092655;28;20063;-76
2022/07/24 00:32:03;;;;;;;1.48;0.50;;;22.00;58.90;;;;;;5092450;28;20047;-76
2022/07/24 00:34:29;;;;;;;1.88;0.63;;;22.00;58.90;;;;;;5091538;28;20035;-76
2022/07/24 00:36:55;;;;;;;0.70;0.40;;;21.90;58.80;;;;;;5091139;28;20503;-76
2022/07/24 00:39:24;;;;;;;2.00;0.70;;;22.00;58.90;;;;;;5091157;28;20076;-76
2022/07/24 00:41:52;;;;;;;2.15;0.50;;;22.00;58.90;;;;;;5091079;28;20079;-76
2022/07/24 00:44:19;;;;;;;1.13;0.50;;;22.00;58.90;;;;;;5092378;28;20135;-76
2022/07/24 00:46:46;;;;;;;1.08;0.68;;;22.00;58.90;;;;;;5074096;28;20055;-75
2022/07/24 00:49:15;;;;;;;1.85;0.70;;;22.00;58.90;;;;;;5091009;28;20040;-76
2022/07/24 00:51:46;;;;;;;1.55;0.70;;;22.00;58.90;;;;;;5091178;28;20055;-76
2022/07/24 00:54:13;;;;;;;1.05;0.50;;;22.00;58.90;;;;;;5091022;28;20083;-76
2022/07/24 00:56:41;;;;;;;0.98;0.50;;;22.00;58.90;;;;;;5092136;28;20503;-76
2022/07/24 00:59:09;;;;;;;0.90;0.47;;;22.00;58.90;;;;;;5091028;28;20368;-76
2022/07/24 01:01:35;;;;;;;2.17;0.60;;;22.00;58.90;;;;;;5091461;28;20089;-75
2022/07/24 01:04:01;;;;;;;0.70;0.50;;;22.00;58.90;;;;;;5090568;28;20547;-76
2022/07/24 01:06:27;;;;;;;1.02;0.70;;;22.00;58.90;;;;;;5091105;28;20040;-75
2022/07/24 01:08:53;;;;;;;1.42;0.60;;;22.00;58.90;;;;;;5090340;28;20075;-75
2022/07/24 01:11:20;;;;;;;2.30;0.50;;;21.90;58.80;;;;;;5090759;28;20043;-75
2022/07/24 01:13:47;;;;;;;0.85;0.50;;;22.00;58.80;;;;;;5091927;28;20492;-75
2022/07/24 01:16:13;;;;;;;1.45;0.60;;;22.00;58.90;;;;;;5090650;28;20510;-75
2022/07/24 01:18:39;;;;;;;1.10;0.60;;;21.90;58.80;;;;;;5090733;28;20035;-75
2022/07/24 01:21:06;;;;;;;1.45;0.77;;;21.90;58.80;;;;;;5090591;28;20120;-76
2022/07/24 01:23:32;;;;;;;0.95;0.65;;;21.90;58.80;;;;;;5090616;28;20406;-76
2022/07/24 01:25:58;;;;;;;0.70;0.40;;;21.90;58.80;;;;;;5090906;28;20521;-76
2022/07/24 01:28:24;;;;;;;0.80;0.60;;;21.90;58.80;;;;;;5090621;28;20044;-75
2022/07/24 01:30:50;;;;;;;1.20;0.40;;;21.90;58.80;;;;;;5090585;28;20486;-76
2022/07/24 01:33:16;;;;;;;0.80;0.45;;;21.90;58.80;;;;;;5091778;28;20036;-76
2022/07/24 01:35:42;;;;;;;1.77;0.40;;;21.90;58.80;;;;;;5090605;28;20044;-76
2022/07/24 01:38:09;;;;;;;1.25;0.63;;;22.00;58.80;;;;;;5090856;28;20286;-76
2022/07/24 01:40:35;;;;;;;1.27;0.55;;;21.90;58.80;;;;;;5091924;28;20117;-76
2022/07/24 01:43:01;;;;;;;1.20;0.40;;;21.90;58.80;;;;;;5090650;28;20130;-75
2022/07/24 01:45:27;;;;;;;1.30;0.60;;;21.90;58.80;;;;;;5090325;28;20040;-76
2022/07/24 01:47:53;;;;;;;0.70;0.40;;;21.90;58.80;;;;;;5091545;28;20043;-76
2022/07/24 01:50:18;;;;;;;0.60;0.40;;;21.90;58.80;;;;;;5091742;28;20054;-75
2022/07/24 01:52:47;;;;;;;1.27;0.50;;;21.90;58.80;;;;;;5090603;28;20368;-75
2022/07/24 01:55:16;;;;;;;1.98;0.60;;;21.90;58.80;;;;;;5091577;28;20028;-76
2022/07/24 01:57:42;;;;;;;1.00;0.60;;;21.90;58.80;;;;;;5091592;28;20051;-76
2022/07/24 02:00:12;;;;;;;1.52;0.70;;;21.90;58.80;;;;;;5090355;28;20083;-76
2022/07/24 02:02:38;;;;;;;0.80;0.60;;;21.90;58.80;;;;;;5090294;28;20052;-76
2022/07/24 02:05:05;;;;;;;0.82;0.50;;;21.90;59.60;;;;;;5090078;28;20129;-75
2022/07/24 02:07:31;;;;;;;1.98;0.68;;;21.80;58.80;;;;;;5087636;28;20060;-75
2022/07/24 02:09:56;;;;;;;0.90;0.60;;;21.90;58.80;;;;;;5053443;28;20051;-75
2022/07/24 02:12:22;;;;;;;0.90;0.57;;;21.80;58.80;;;;;;5053237;28;20086;-75
2022/07/24 02:14:50;;;;;;;0.73;0.55;;;21.90;58.80;;;;;;5053434;28;20044;-76
2022/07/24 02:17:16;;;;;;;1.63;0.75;;;21.80;58.80;;;;;;5056959;28;20036;-75
2022/07/24 02:19:41;;;;;;;0.73;0.50;;;21.80;58.80;;;;;;5057350;28;20036;-76
2022/07/24 02:22:07;;;;;;;1.30;1.00;;;21.80;58.80;;;;;;5057716;28;20364;-75
2022/07/24 02:24:33;;;;;;;1.02;0.82;;;21.80;58.70;;;;;;5056794;28;20476;-76
2022/07/24 02:26:58;;;;;;;1.23;0.55;;;21.80;58.70;;;;;;5056664;28;20047;-76
2022/07/24 02:29:24;;;;;;;0.95;0.65;;;21.80;58.80;;;;;;5056516;28;20043;-76
2022/07/24 02:31:50;;;;;;;1.20;1.05;;;21.80;58.80;;;;;;5056324;28;20044;-76
2022/07/24 02:34:15;;;;;;;0.68;0.50;;;21.80;58.80;;;;;;5056562;28;20044;-76
2022/07/24 02:36:44;;;;;;;0.60;0.52;;;21.80;58.80;;;;;;5056387;28;20086;-75
2022/07/24 02:39:10;;;;;;;1.00;0.32;;;21.80;58.80;;;;;;5074407;28;20473;-76
2022/07/24 02:41:35;;;;;;;0.73;0.50;;;21.80;58.80;;;;;;5056306;28;20051;-75
2022/07/24 02:44:01;;;;;;;0.95;0.50;;;21.80;58.70;;;;;;5056287;28;20048;-75
2022/07/24 02:46:27;;;;;;;0.90;0.90;;;21.80;58.80;;;;;;5056381;28;20090;-75
2022/07/24 02:48:55;;;;;;;1.00;0.73;;;21.80;58.80;;;;;;5074072;28;20083;-75
2022/07/24 02:51:21;;;;;;;0.80;0.50;;;21.80;58.80;;;;;;5056340;28;20060;-75
2022/07/24 02:53:46;;;;;;;0.95;0.50;;;21.80;58.80;;;;;;5056138;28;20472;-76
2022/07/24 02:56:12;;;;;;;1.23;0.70;;;21.80;58.70;;;;;;5056007;28;20090;-76
2022/07/24 02:58:37;;;;;;;0.90;0.50;;;21.80;58.80;;;;;;5056096;28;20044;-76
2022/07/24 03:01:06;;;;;;;2.13;0.50;;;21.80;58.70;;;;;;5055847;28;20131;-75
2022/07/24 03:03:32;;;;;;;0.90;0.50;;;21.80;58.80;;;;;;5056235;28;20048;-75
2022/07/24 03:05:57;;;;;;;0.88;0.50;;;21.70;58.70;;;;;;5056153;28;20114;-76
2022/07/24 03:08:23;;;;;;;0.68;0.50;;;21.70;58.70;;;;;;5073598;28;20048;-75
2022/07/24 03:10:48;;;;;;;1.55;0.80;;;21.80;58.80;;;;;;5055875;28;20419;-75
2022/07/24 03:13:15;;;;;;;1.70;0.77;;;21.80;58.80;;;;;;5073603;28;20040;-75
2022/07/24 03:15:41;;;;;;;0.82;0.60;;;21.70;58.70;;;;;;5055924;28;20044;-75
2022/07/24 03:18:09;;;;;;;0.85;0.60;;;21.70;58.70;;;;;;5055604;28;20404;-75
2022/07/24 03:20:35;;;;;;;0.40;0.30;;;21.80;58.70;;;;;;5055647;28;20087;-76
2022/07/24 03:23:01;;;;;;;0.60;0.30;;;21.70;58.70;;;;;;5055564;28;20072;-76
2022/07/24 03:25:27;;;;;;;0.70;0.40;;;21.80;58.70;;;;;;5055994;28;20045;-76
2022/07/24 03:27:53;;;;;;;0.90;0.50;;;21.70;58.70;;;;;;5073267;28;20119;-76
2022/07/24 03:30:19;;;;;;;1.40;0.73;;;21.70;58.70;;;;;;5055369;28;20033;-76
2022/07/24 03:32:46;;;;;;;0.60;0.40;;;21.70;58.70;;;;;;5055544;28;20041;-76
2022/07/24 03:35:11;;;;;;;1.20;0.47;;;21.70;58.70;;;;;;5055312;28;20158;-76
2022/07/24 03:37:37;;;;;;;0.90;0.60;;;21.70;58.70;;;;;;5073308;28;20119;-76
2022/07/24 03:40:04;;;;;;;1.00;0.60;;;21.70;58.70;;;;;;5073185;28;20044;-76
2022/07/24 03:42:29;;;;;;;0.70;0.45;;;21.70;58.70;;;;;;5055440;28;20052;-76
2022/07/24 03:44:58;;;;;;;2.20;0.50;;;21.70;58.70;;;;;;5055528;28;20419;-75
2022/07/24 03:47:23;;;;;;;1.10;0.47;;;21.70;58.70;;;;;;5055237;28;20353;-76
2022/07/24 03:49:49;;;;;;;3.50;0.50;;;21.70;58.70;;;;;;5055214;28;20036;-76
2022/07/24 03:52:15;;;;;;;1.70;0.75;;;21.70;58.70;;;;;;5055168;28;20079;-75
2022/07/24 03:54:40;;;;;;;1.20;0.50;;;21.70;58.60;;;;;;5055027;28;20395;-76
2022/07/24 03:57:06;;;;;;;1.08;0.60;;;21.70;58.70;;;;;;5072897;28;20039;-76
2022/07/24 03:59:32;;;;;;;0.60;0.40;;;21.70;58.70;;;;;;5054813;28;20036;-75
2022/07/24 04:01:58;;;;;;;1.10;0.70;;;21.70;58.70;;;;;;5073151;28;20028;-76
2022/07/24 04:04:23;;;;;;;1.27;0.40;;;21.60;59.30;;;;;;5055081;28;20067;-76
2022/07/24 04:06:49;;;;;;;0.63;0.40;;;21.70;58.70;;;;;;5054838;28;20048;-76
2022/07/24 04:09:14;;;;;;;1.02;0.65;;;21.70;58.70;;;;;;5072344;28;20095;-76
2022/07/24 04:11:44;;;;;;;1.10;0.60;;;21.70;59.40;;;;;;5054961;28;20396;-75
2022/07/24 04:14:10;;;;;;;2.27;0.50;;;21.60;58.60;;;;;;5054734;28;20040;-76
2022/07/24 04:16:38;;;;;;;0.70;0.50;;;21.60;58.60;;;;;;5054724;28;20359;-76
2022/07/24 04:19:04;;;;;;;0.88;0.40;;;21.60;58.60;;;;;;5054466;28;20131;-76
2022/07/24 04:21:29;;;;;;;0.77;0.50;;;21.70;58.60;;;;;;5054477;28;20135;-76
2022/07/24 04:23:55;;;;;;;1.10;0.40;;;21.60;58.60;;;;;;5072257;28;20036;-76
2022/07/24 04:26:21;;;;;;;0.70;0.40;;;21.60;58.60;;;;;;5054760;28;20433;-76
2022/07/24 04:28:46;;;;;;;0.80;0.60;;;21.60;58.60;;;;;;5054354;28;20083;-76
2022/07/24 04:31:12;;;;;;;1.00;0.60;;;21.60;58.60;;;;;;5054196;28;20396;-76
2022/07/24 04:33:41;;;;;;;0.60;0.40;;;21.60;58.60;;;;;;5054328;28;20045;-76
2022/07/24 04:36:07;;;;;;;1.02;0.52;;;21.60;58.60;;;;;;5054329;28;20036;-76
2022/07/24 04:38:34;;;;;;;2.42;0.70;;;21.60;58.60;;;;;;5071947;28;20047;-75
2022/07/24 04:40:59;;;;;;;1.25;0.50;;;21.60;58.60;;;;;;5054388;28;20071;-76
2022/07/24 04:43:25;;;;;;;1.05;0.50;;;21.60;58.60;;;;;;5054391;28;20091;-75
2022/07/24 04:45:51;;;;;;;1.00;0.50;;;21.60;58.60;;;;;;5054373;28;20507;-76
2022/07/24 04:48:17;;;;;;;1.13;0.60;;;21.60;58.70;;;;;;5054227;28;20069;-76
2022/07/24 04:50:42;;;;;;;0.75;0.57;;;21.60;58.60;;;;;;5054101;28;20036;-76
2022/07/24 04:53:08;;;;;;;0.98;0.50;;;21.60;58.60;;;;;;5054365;28;20117;-75
2022/07/24 04:55:33;;;;;;;0.73;0.40;;;21.60;58.60;;;;;;5054025;28;20086;-76
2022/07/24 04:57:59;;;;;;;1.23;0.52;;;21.60;58.60;;;;;;5054082;28;20051;-76
2022/07/24 05:00:25;;;;;;;0.85;0.68;;;21.60;58.60;;;;;;5054225;28;20040;-77
2022/07/24 05:02:50;;;;;;;0.77;0.52;;;21.60;58.70;;;;;;5054068;28;20438;-76
2022/07/24 05:05:16;;;;;;;1.20;0.65;;;21.60;58.60;;;;;;5053841;28;20101;-76
2022/07/24 05:07:42;;;;;;;1.50;0.80;;;21.60;58.60;;;;;;5057384;28;20068;-74
2022/07/24 05:10:08;;;;;;;1.08;0.63;;;21.60;58.60;;;;;;5053787;28;20488;-75
2022/07/24 05:12:34;;;;;;;1.00;0.60;;;21.60;58.60;;;;;;5053852;28;20072;-75
2022/07/24 05:14:59;;;;;;;1.45;0.57;;;21.60;58.60;;;;;;5053688;28;20071;-75
2022/07/24 05:17:25;;;;;;;0.65;0.43;;;21.60;58.60;;;;;;5053691;28;20044;-76
2022/07/24 05:19:51;;;;;;;0.98;0.50;;;21.60;58.60;;;;;;5055040;28;20036;-76
2022/07/24 05:22:17;;;;;;;1.00;0.73;;;21.60;58.60;;;;;;5071819;28;20082;-76
2022/07/24 05:24:42;;;;;;;1.70;0.75;;;21.60;58.60;;;;;;5070711;28;20040;-76
2022/07/24 05:27:09;;;;;;;1.25;0.52;;;21.60;58.60;;;;;;5070346;28;20439;-75
2022/07/24 05:29:34;;;;;;;1.67;0.80;;;21.60;58.60;;;;;;5071609;28;20395;-74
2022/07/24 05:32:00;;;;;;;1.05;0.52;;;21.60;58.60;;;;;;5070457;28;20052;-76
2022/07/24 05:34:26;;;;;;;0.60;0.40;;;21.60;58.60;;;;;;5070480;28;20499;-76
2022/07/24 05:36:51;;;;;;;1.48;0.60;;;21.60;58.60;;;;;;5070232;28;20399;-75
2022/07/24 05:39:17;;;;;;;1.10;0.70;;;21.60;58.50;;;;;;5070268;28;20048;-75
2022/07/24 05:41:42;;;;;;;1.73;0.65;;;21.60;58.50;;;;;;5070469;28;20053;-76
2022/07/24 05:44:08;;;;;;;1.25;0.82;;;21.60;58.50;;;;;;5070502;28;20503;-76
2022/07/24 05:46:35;;;;;;;1.70;0.80;;;21.60;58.50;;;;;;5070460;28;20507;-76
2022/07/24 05:49:00;;;;;;;1.25;0.60;;;21.60;58.50;;;;;;5070062;28;20056;-75
2022/07/24 05:51:29;;;;;;;1.30;0.50;;;21.60;58.60;;;;;;5072848;28;20052;-76
2022/07/24 05:53:55;;;;;;;1.50;0.95;;;21.60;58.60;;;;;;5074289;28;20457;-76
2022/07/24 05:56:20;;;;;;;1.17;0.70;;;21.60;58.60;;;;;;5074241;28;20120;-75
2022/07/24 05:58:49;;;;;;;1.65;0.70;;;21.60;58.60;;;;;;5074211;28;20134;-76
2022/07/24 06:01:15;;;;;;;1.17;0.60;;;21.60;58.60;;;;;;5075157;28;20049;-75
2022/07/24 06:03:40;;;;;;;1.13;0.60;;;21.60;58.60;;;;;;5074094;28;20048;-76
2022/07/24 06:06:06;;;;;;;1.23;0.85;;;21.60;58.60;;;;;;5075060;28;20033;-75
2022/07/24 06:08:32;;;;;;;1.42;0.93;;;21.60;58.70;;;;;;5073581;28;20391;-75
2022/07/24 06:10:58;;;;;;;1.30;0.63;;;21.60;58.60;;;;;;5073916;28;20032;-75
2022/07/24 06:13:23;;;;;;;1.30;0.60;;;21.60;58.70;;;;;;5073692;28;20041;-76
2022/07/24 06:15:49;;;;;;;1.45;1.13;;;21.60;58.60;;;;;;5073603;28;20044;-75
2022/07/24 06:18:17;;;;;;;2.45;1.13;;;21.60;58.70;;;;;;5073742;28;20074;-75
2022/07/24 06:20:43;;;;;;;1.85;0.80;;;21.60;58.70;;;;;;5073675;28;20059;-76
2022/07/24 06:23:08;;;;;;;1.80;1.33;;;21.60;58.70;;;;;;5057008;28;20553;-76
2022/07/24 06:25:34;;;;;;;1.52;1.20;;;21.60;59.40;;;;;;5056832;28;20084;-76
2022/07/24 06:28:00;;;;;;;1.00;0.88;;;21.60;58.70;;;;;;5074533;28;20084;-76
2022/07/24 06:30:29;;;;;;;1.10;0.82;;;21.50;58.60;;;;;;5056598;28;20043;-75
2022/07/24 06:32:59;;;;;;;1.45;1.02;;;21.60;58.70;;;;;;5056809;28;20046;-75
2022/07/24 06:35:25;;;;;;;2.08;1.30;;;21.60;58.70;;;;;;5056773;28;20059;-75
2022/07/24 06:37:51;;;;;;;1.42;1.00;;;21.60;58.70;;;;;;5056601;28;20405;-76
2022/07/24 06:40:18;;;;;;;3.05;1.20;;;21.60;58.70;;;;;;5056424;28;20048;-75
2022/07/24 06:42:47;;;;;;;2.22;0.95;;;21.60;58.70;;;;;;5073395;28;20041;-78
2022/07/24 06:45:14;;;;;;;1.73;1.50;;;21.60;58.70;;;;;;5056553;28;20097;-75
2022/07/24 06:47:40;;;;;;;1.70;1.00;;;21.60;58.70;;;;;;5056306;28;20511;-76
2022/07/24 06:50:07;;;;;;;1.95;1.40;;;21.60;58.70;;;;;;5056445;28;20137;-76
2022/07/24 06:52:32;;;;;;;1.25;1.05;;;21.60;58.80;;;;;;5056254;28;20113;-75
2022/07/24 06:55:01;;;;;;;2.03;1.23;;;21.60;58.80;;;;;;5056221;28;20181;-75
2022/07/24 06:57:27;;;;;;;1.80;1.40;;;21.60;58.80;;;;;;5056096;28;20045;-76
2022/07/24 06:59:53;;;;;;;1.65;1.55;;;21.60;58.80;;;;;;5056165;28;20123;-75
2022/07/24 07:02:20;;;;;;;1.92;1.40;;;21.60;58.90;;;;;;5055545;28;20032;-76
2022/07/24 07:04:46;;;;;;;1.73;1.42;;;21.60;58.90;;;;;;5055978;28;20032;-77
2022/07/24 07:07:16;;;;;;;2.60;1.58;;;21.60;58.90;;;;;;5072921;28;20593;-75
2022/07/24 07:09:45;;;;;;;1.63;1.27;;;21.60;58.90;;;;;;5073687;28;20048;-76
2022/07/24 07:12:11;;;;;;;2.83;1.35;;;21.60;58.90;;;;;;5055948;28;20091;-76
2022/07/24 07:14:36;;;;;;;1.70;1.60;;;21.70;59.00;;;;;;5055702;28;20392;-76
2022/07/24 07:17:02;;;;;;;1.77;1.67;;;21.70;59.10;;;;;;5055889;28;20076;-75
2022/07/24 07:19:28;;;;;;;2.40;1.50;;;21.60;59.00;;;;;;5055811;28;20044;-75
2022/07/24 07:21:54;;;;;;;2.10;1.55;;;21.70;59.20;;;;;;5055715;28;20449;-75
2022/07/24 07:24:22;;;;;;;2.83;1.50;;;21.70;59.20;;;;;;5055353;28;20048;-76
2022/07/24 07:26:48;;;;;;;1.45;1.27;;;21.70;59.20;;;;;;5055795;28;20189;-76
2022/07/24 07:29:13;;;;;;;2.30;2.03;;;21.70;59.20;;;;;;5055373;28;20555;-76
2022/07/24 07:31:42;;;;;;;2.38;1.60;;;21.70;59.20;;;;;;5073399;28;20396;-76
2022/07/24 07:34:07;;;;;;;3.53;1.92;;;21.70;59.20;;;;;;5073308;28;20035;-75
2022/07/24 07:36:37;;;;;;;3.70;2.67;;;21.70;59.30;;;;;;5073447;28;20119;-76
2022/07/24 07:39:02;;;;;;;2.47;1.73;;;21.70;59.30;;;;;;5055289;28;20048;-76
2022/07/24 07:41:28;;;;;;;2.25;1.70;;;21.70;59.30;;;;;;5073207;28;20044;-75
2022/07/24 07:43:53;;;;;;;1.85;1.60;;;21.70;59.30;;;;;;5055242;28;20040;-76
2022/07/24 07:46:19;;;;;;;2.45;1.98;;;21.70;59.30;;;;;;5055394;28;20029;-75
2022/07/24 07:48:45;;;;;;;1.52;1.40;;;21.70;59.30;;;;;;5055051;28;20492;-75
2022/07/24 07:51:14;;;;;;;2.20;1.85;;;21.70;59.30;;;;;;5055060;28;20036;-75
2022/07/24 07:53:40;;;;;;;2.00;1.55;;;21.70;59.40;;;;;;5071932;28;20048;-75
2022/07/24 07:56:05;;;;;;;1.90;1.70;;;21.70;59.30;;;;;;5055037;28;20036;-75
2022/07/24 07:58:31;;;;;;;3.67;2.33;;;21.70;59.30;;;;;;5072902;28;20083;-75
2022/07/24 08:00:57;;;;;;;1.63;1.38;;;21.70;59.30;;;;;;5055093;28;20032;-75
2022/07/24 08:03:22;;;;;;;1.95;1.77;;;21.70;59.30;;;;;;5055108;28;20414;-76
2022/07/24 08:05:54;;;;;;;2.10;1.42;;;21.70;59.30;;;;;;5054777;28;20045;-75
2022/07/24 08:08:19;;;;;;;2.78;1.92;;;21.70;59.30;;;;;;5067627;28;20048;-75
2022/07/24 08:10:45;;;;;;;2.00;1.60;;;21.70;59.30;;;;;;5093123;28;20453;-76
2022/07/24 08:13:12;;;;;;;3.60;1.63;;;21.70;59.20;;;;;;5090820;28;20071;-76
2022/07/24 08:15:38;;;;;;;3.72;1.40;;;21.70;59.20;;;;;;5108884;28;20121;-75
2022/07/24 08:18:04;;;;;;;2.53;1.85;;;21.80;59.20;;;;;;5091414;28;20555;-76
2022/07/24 08:20:30;;;;;;;1.83;1.63;;;21.80;59.20;;;;;;5108329;28;20123;-76
2022/07/24 08:22:55;;;;;;;2.25;1.90;;;21.80;59.10;;;;;;5091426;28;20051;-76
2022/07/24 08:25:21;;;;;;;2.67;1.90;;;21.80;59.10;;;;;;5092669;28;20040;-75
2022/07/24 08:27:47;;;;;;;3.13;1.80;;;21.80;59.10;;;;;;5091475;28;20035;-76
2022/07/24 08:30:13;;;;;;;2.22;1.70;;;21.80;59.10;;;;;;5091263;28;20040;-76
2022/07/24 08:32:39;;;;;;;2.67;1.75;;;21.80;59.00;;;;;;5091249;28;20043;-76
2022/07/24 08:35:06;;;;;;;1.90;1.77;;;21.80;59.00;;;;;;5091357;28;20050;-75
2022/07/24 08:37:40;;;;;;;2.90;1.63;;;21.80;59.00;;;;;;5091150;28;20492;-76
2022/07/24 08:40:10;;;;;;;2.03;1.83;;;21.80;58.90;;;;;;5091393;28;20036;-76
2022/07/24 08:42:36;;;;;;;2.03;1.42;;;21.80;58.90;;;;;;5091294;28;20040;-75
2022/07/24 08:45:04;;;;;;;2.10;1.63;;;21.80;58.80;;;;;;5092315;28;20031;-76
2022/07/24 08:47:32;;;;;;;2.05;1.80;;;21.90;58.80;;;;;;5090963;28;20047;-75
2022/07/24 08:49:59;;;;;;;2.72;1.55;;;21.90;58.80;;;;;;5092330;28;20048;-75
2022/07/24 08:52:25;;;;;;;3.60;1.85;;;21.90;58.80;;;;;;5091103;28;20051;-76
2022/07/24 08:54:52;;;;;;;2.20;1.70;;;21.90;58.80;;;;;;5091140;28;20036;-75
2022/07/24 08:57:18;;;;;;;1.85;1.65;;;21.90;58.70;;;;;;5091157;28;20436;-77
2022/07/24 08:59:44;;;;;;;1.48;1.35;;;21.90;58.70;;;;;;5091103;28;20078;-76
2022/07/24 09:02:09;;;;;;;1.60;1.45;;;21.90;58.60;;;;;;5090848;28;20040;-76
2022/07/24 09:04:39;;;;;;;3.65;1.65;;;21.90;58.60;;;;;;5090718;28;20052;-77
2022/07/24 09:12:48;;;;;;;2.10;1.38;;;22.00;58.60;;;;;;5130723;27;20764;-76
2022/07/24 09:15:15;;;;;;;;;;;22.00;58.30;;;;;;5129831;28;20046;-76
2022/07/24 09:20:42;;;;;;;1.88;1.33;;;22.10;58.20;;;;;;5164949;27;20657;-76
2022/07/24 09:23:07;;;;;;;2.22;1.48;;;22.20;58.10;;;;;;5149477;27;20054;-76
2022/07/24 09:25:33;;;;;;;2.10;1.60;;;22.20;58.00;;;;;;5149658;27;20043;-76
2022/07/24 09:28:01;;;;;;;1.92;1.58;;;22.20;57.90;;;;;;5149548;27;20042;-76
2022/07/24 09:30:31;;;;;;;1.63;1.30;;;22.30;57.80;;;;;;5149479;27;20039;-76
2022/07/24 09:35:52;;;;;;;2.30;1.70;;;22.30;57.70;;;;;;5089320;27;20398;-76
2022/07/24 09:38:21;;;;;;;1.70;1.40;;;22.40;57.60;;;;;;5088089;28;20044;-76
2022/07/24 09:40:51;;;;;;;1.88;1.42;;;22.40;57.60;;;;;;5088323;28;20168;-76
2022/07/24 09:43:32;;;;;;;2.90;1.30;;;22.40;57.40;;;;;;5088111;28;20127;-77
2022/07/24 09:48:40;;;;;;;1.70;1.23;;;22.40;57.30;;;;;;5130276;27;20387;-75
2022/07/24 09:51:14;;;;;;;1.55;1.42;;;22.50;57.30;;;;;;5128951;28;20043;-78
2022/07/24 09:53:41;;;;;;;2.17;1.58;;;22.50;57.20;;;;;;5130425;27;20039;-78
2022/07/24 09:56:12;;;;;;;1.60;1.48;;;22.50;57.20;;;;;;5146297;27;20044;-79
2022/07/24 09:58:47;;;;;;;1.85;1.30;;;22.50;57.10;;;;;;5146235;27;20036;-78
2022/07/24 10:01:16;;;;;;;2.33;1.58;;;22.50;57.00;;;;;;5129075;27;20649;-76
2022/07/24 10:03:44;;;;;;;2.90;1.40;;;22.60;57.10;;;;;;5129087;28;20040;-77
2022/07/24 10:06:13;;;;;;;1.80;1.35;;;22.60;57.00;;;;;;5145821;27;20031;-77
2022/07/24 10:08:43;;;;;;;1.77;1.65;;;22.60;57.00;;;;;;5128978;28;20066;-76
2022/07/24 10:11:10;;;;;;;1.35;1.02;;;22.60;57.00;;;;;;5129871;27;20040;-76
2022/07/24 10:13:36;;;;;;;3.35;1.58;;;22.60;57.00;;;;;;5128950;28;20042;-76
2022/07/24 10:30:08;;;;;;;1.50;1.17;;;22.70;56.80;;;;;;5130527;27;20399;-76
2022/07/24 10:32:35;;;;;;;2.50;0.95;;;22.70;56.90;;;;;;5129198;28;20066;-77
2022/07/24 10:40:48;;;;;;;1.98;1.17;;;22.70;56.80;;;;;;5130304;27;20410;-77
2022/07/24 10:43:16;;;;;;;1.70;1.52;;;22.70;56.90;;;;;;5129437;27;20429;-77
2022/07/24 10:48:38;;;;;;;1.30;1.17;;;22.70;56.90;;;;;;5089483;28;20406;-77
2022/07/24 10:51:07;;;;;;;1.70;1.60;;;22.70;56.80;;;;;;5088105;28;20054;-78
2022/07/24 10:53:51;;;;;;;2.38;1.42;;;22.70;56.90;;;;;;5088358;28;20086;-77
2022/07/24 10:59:33;;;;;;;2.13;1.23;;;22.70;56.90;;;;;;5130362;27;20406;-77
2022/07/24 11:02:24;;;;;;;3.10;1.17;;;22.70;56.90;;;;;;5128942;27;20043;-77
2022/07/24 11:05:29;;;;;;;1.60;1.42;;;22.70;56.90;;;;;;5129240;27;20046;-76
2022/07/24 11:10:57;;;;;;;2.72;1.27;;;22.70;56.90;;;;;;5089545;28;20439;-77
2022/07/24 11:13:41;;;;;;;1.70;1.40;;;22.70;57.00;;;;;;5088241;28;20048;-77
2022/07/24 11:16:24;;;;;;;1.40;1.20;;;22.70;56.90;;;;;;5088314;28;20039;-77
2022/07/24 11:21:36;;;;;;;2.17;1.17;;;22.70;57.00;;;;;;5130351;27;20354;-77
2022/07/24 11:24:22;;;;;;;1.80;1.45;;;22.70;57.10;;;;;;5128883;28;20490;-77
2022/07/24 11:27:04;;;;;;;1.50;1.30;;;22.70;57.10;;;;;;5129230;27;20551;-77
2022/07/24 11:29:34;;;;;;;1.92;1.10;;;22.70;57.10;;;;;;5129006;28;20281;-77
2022/07/24 11:34:45;;;;;;;1.30;1.08;;;22.80;57.20;;;;;;5152996;27;1160500;-77
2022/07/24 11:37:10;;;;;;;;;;;22.70;57.20;;;;;;5153948;27;20238;-77
2022/07/24 11:39:39;;;;;;;1.98;1.20;;;22.70;57.10;;;;;;5152940;27;20021;-77
2022/07/24 11:42:08;;;;;;;1.77;1.00;;;22.70;57.20;;;;;;5171635;27;20404;-79
2022/07/24 11:44:39;;;;;;;1.40;1.25;;;22.70;57.30;;;;;;5153258;27;20118;-77
2022/07/24 11:47:13;;;;;;;1.25;1.00;;;22.70;57.40;;;;;;5153356;27;20026;-77
2022/07/24 11:52:39;;;;;;;1.10;0.90;;;22.70;57.40;;;;;;5152538;27;1173317;-78
2022/07/24 11:55:10;;;;;;;1.65;1.40;;;22.70;57.30;;;;;;5153057;27;20046;-77
2022/07/24 11:57:38;;;;;;;1.30;0.80;;;22.70;57.40;;;;;;5153141;27;20042;-77
2022/07/24 12:00:11;;;;;;;1.17;1.08;;;22.80;57.40;;;;;;5153033;27;20043;-77
2022/07/24 12:02:41;;;;;;;2.45;1.10;;;22.70;57.40;;;;;;5153063;27;20034;-77
2022/07/24 12:05:08;;;;;;;1.30;1.17;;;22.80;57.50;;;;;;5153115;27;20042;-77
2022/07/24 12:07:35;;;;;;;1.70;1.30;;;22.80;57.50;;;;;;5153042;27;20038;-77
2022/07/24 12:10:03;;;;;;;1.50;1.30;;;22.80;57.60;;;;;;5152852;27;20117;-77
2022/07/24 12:12:35;;;;;;;1.05;0.93;;;22.80;57.60;;;;;;5153151;27;20038;-77
2022/07/24 12:15:08;;;;;;;1.27;1.02;;;22.80;57.60;;;;;;5152790;27;20038;-77
2022/07/24 12:17:51;;;;;;;2.25;1.30;;;22.70;57.50;;;;;;5152894;27;20072;-77
2022/07/24 12:20:21;;;;;;;1.80;1.20;;;22.80;57.60;;;;;;5152516;27;20038;-76
2022/07/24 12:22:47;;;;;;;1.03;0.90;;;22.80;57.60;;;;;;5153003;27;20042;-77
2022/07/24 12:25:14;;;;;;;1.52;1.08;;;22.80;57.60;;;;;;5152495;27;20050;-77
2022/07/24 12:27:45;;;;;;;1.30;0.90;;;22.80;57.60;;;;;;5171216;27;20035;-76
2022/07/24 12:30:21;;;;;;;1.30;1.10;;;22.80;57.60;;;;;;5152824;27;20039;-77
2022/07/24 12:33:06;;;;;;;1.40;0.98;;;22.80;57.60;;;;;;5171080;27;20117;-77
2022/07/24 12:35:34;;;;;;;1.27;1.00;;;22.80;57.50;;;;;;5152537;27;20034;-77
2022/07/24 12:38:03;;;;;;;1.40;1.23;;;22.80;57.70;;;;;;5152313;27;20046;-76
2022/07/24 12:40:36;;;;;;;1.40;0.98;;;22.80;57.60;;;;;;5152528;27;20045;-77
2022/07/24 12:43:09;;;;;;;1.55;1.15;;;22.80;57.60;;;;;;5152091;27;20034;-77
2022/07/24 12:45:35;;;;;;;1.55;1.23;;;22.80;58.40;;;;;;5152344;27;20034;-76
2022/07/24 12:48:11;;;;;;;1.67;1.13;;;22.90;57.70;;;;;;5152207;27;20049;-77
2022/07/24 12:50:38;;;;;;;1.25;0.98;;;22.90;57.70;;;;;;5151720;27;20185;-76
2022/07/24 12:53:06;;;;;;;1.60;1.10;;;22.90;57.80;;;;;;5152048;27;20074;-77
2022/07/24 12:55:33;;;;;;;1.23;1.13;;;22.90;57.80;;;;;;5152154;27;20046;-76
2022/07/24 12:58:00;;;;;;;2.17;1.00;;;22.90;57.80;;;;;;5152250;27;20389;-76
2022/07/24 13:00:26;;;;;;;1.40;1.20;;;22.90;57.80;;;;;;5151746;27;20481;-76
2022/07/24 13:02:52;;;;;;;1.30;1.10;;;22.90;57.80;;;;;;5142513;27;20049;-76
2022/07/24 13:05:36;;;;;;;1.63;1.40;;;22.90;57.90;;;;;;5138208;27;20031;-76
2022/07/24 13:08:02;;;;;;;1.40;1.13;;;22.90;57.90;;;;;;5138091;27;20060;-77
2022/07/24 13:10:28;;;;;;;1.50;1.40;;;22.90;57.90;;;;;;5137983;27;20474;-76
2022/07/24 13:12:54;;;;;;;1.20;1.10;;;22.90;57.90;;;;;;5137940;27;20355;-76
2022/07/24 13:15:20;;;;;;;1.60;1.27;;;22.90;57.80;;;;;;5156371;27;20034;-77
2022/07/24 13:17:46;;;;;;;2.20;1.13;;;22.90;57.90;;;;;;5137856;27;20039;-76
2022/07/24 13:20:11;;;;;;;1.60;1.05;;;23.00;57.90;;;;;;5134374;27;20057;-78
2022/07/24 13:22:37;;;;;;;1.80;1.00;;;22.90;57.90;;;;;;5117181;27;20077;-77
2022/07/24 13:25:03;;;;;;;2.00;1.20;;;23.00;57.90;;;;;;5116934;27;20043;-77
2022/07/24 13:27:29;;;;;;;1.27;0.93;;;23.00;58.00;;;;;;5135670;27;20066;-77
2022/07/24 13:29:55;;;;;;;1.13;0.85;;;22.90;57.90;;;;;;5117081;27;20097;-77
2022/07/24 13:32:20;;;;;;;2.10;1.20;;;23.00;57.90;;;;;;5116867;27;20435;-77
2022/07/24 13:34:46;;;;;;;1.45;1.27;;;23.00;57.90;;;;;;5117077;27;20066;-77
2022/07/24 13:37:12;;;;;;;1.33;1.20;;;23.00;57.90;;;;;;5116674;27;20080;-77
2022/07/24 13:39:40;;;;;;;1.30;1.20;;;23.00;57.90;;;;;;5116835;27;20031;-77